BAW98RL EGLL-LSZH
Flight info
| Callsign | BAW98RL |
|---|---|
| Flight time | 1h 14m |
| Altitude | 29000 |
| Route | DET L6 DVR UL9 KONAN DCT KOK DCT SISGA DCT RITAX DCT KRH M150 LAMGO/N0441F270 T721 SUL/N0428F250 T721 RILAX |
| Aircraft | A319/M-SDE3FGHIRWY/LB1 |
Departure
| Time | 2026-05-06 15:40 |
|---|---|
| Airport | London Heathrow Airport (EGLL) |
Arrival
| Time | 2026-05-06 16:54 |
|---|---|
| Airport | Zürich Airport (LSZH) |
| Time | Latitude | Longitude | Altitude | Speed | Heading |
|---|---|---|---|---|---|
| 2026-05-06 14:58 | 51.46931 | -0.48859 | 90 ft | 0 kts | 360° |
| 2026-05-06 15:32 | 51.46912 | -0.48859 | 89 ft | 4 kts | 360° |
| 2026-05-06 15:33 | 51.46891 | -0.48859 | 86 ft | 4 kts | 348° |
| 2026-05-06 15:33 | 51.46876 | -0.48841 | 90 ft | 4 kts | 273° |
| 2026-05-06 15:33 | 51.46876 | -0.48800 | 89 ft | 4 kts | 270° |
| 2026-05-06 15:33 | 51.46876 | -0.48757 | 86 ft | 4 kts | 270° |
| 2026-05-06 15:34 | 51.46877 | -0.48723 | 86 ft | 3 kts | 270° |
| 2026-05-06 15:34 | 51.46877 | -0.48702 | 86 ft | 0 kts | 270° |
| 2026-05-06 15:35 | 51.46874 | -0.48728 | 90 ft | 5 kts | 253° |
| 2026-05-06 15:36 | 51.46822 | -0.48750 | 86 ft | 10 kts | 180° |
| 2026-05-06 15:36 | 51.46746 | -0.48749 | 86 ft | 13 kts | 180° |
| 2026-05-06 15:36 | 51.46644 | -0.48750 | 86 ft | 15 kts | 182° |
| 2026-05-06 15:36 | 51.46603 | -0.48766 | 90 ft | 0 kts | 201° |
| 2026-05-06 15:37 | 51.46596 | -0.48770 | 88 ft | 0 kts | 200° |
| 2026-05-06 15:38 | 51.46594 | -0.48771 | 88 ft | 3 kts | 200° |
| 2026-05-06 15:38 | 51.46543 | -0.48791 | 86 ft | 12 kts | 185° |
| 2026-05-06 15:38 | 51.46479 | -0.48703 | 87 ft | 14 kts | 103° |
| 2026-05-06 15:38 | 51.46478 | -0.48639 | 89 ft | 0 kts | 89° |
| 2026-05-06 15:39 | 51.46478 | -0.48630 | 88 ft | 7 kts | 89° |
| 2026-05-06 15:40 | 51.46480 | -0.48213 | 89 ft | 74 kts | 89° |
| 2026-05-06 15:40 | 51.46483 | -0.47021 | 88 ft | 137 kts | 89° |
| 2026-05-06 15:40 | 51.46480 | -0.45294 | 492 ft | 154 kts | 85° |
| 2026-05-06 15:40 | 51.46471 | -0.43601 | 1239 ft | 156 kts | 85° |
| 2026-05-06 15:41 | 51.46430 | -0.41755 | 1694 ft | 180 kts | 97° |
| 2026-05-06 15:41 | 51.45758 | -0.39868 | 2074 ft | 211 kts | 123° |
| 2026-05-06 15:41 | 51.44877 | -0.37765 | 2652 ft | 237 kts | 120° |
| 2026-05-06 15:41 | 51.43990 | -0.35436 | 3385 ft | 258 kts | 116° |
| 2026-05-06 15:42 | 51.43405 | -0.32686 | 4402 ft | 263 kts | 101° |
| 2026-05-06 15:42 | 51.42980 | -0.29802 | 5457 ft | 269 kts | 100° |
| 2026-05-06 15:42 | 51.42556 | -0.26859 | 6534 ft | 274 kts | 100° |
| 2026-05-06 15:42 | 51.42142 | -0.23851 | 7562 ft | 278 kts | 100° |
| 2026-05-06 15:43 | 51.41727 | -0.20781 | 8537 ft | 286 kts | 101° |
| 2026-05-06 15:43 | 51.41301 | -0.17630 | 9523 ft | 293 kts | 100° |
| 2026-05-06 15:43 | 51.40862 | -0.14377 | 10327 ft | 307 kts | 100° |
| 2026-05-06 15:43 | 51.40391 | -0.10906 | 10718 ft | 331 kts | 101° |
| 2026-05-06 15:44 | 51.39880 | -0.07181 | 11055 ft | 354 kts | 101° |
| 2026-05-06 15:44 | 51.39340 | -0.03277 | 11710 ft | 364 kts | 102° |
| 2026-05-06 15:44 | 51.38785 | 0.00702 | 12530 ft | 368 kts | 101° |
| 2026-05-06 15:44 | 51.38231 | 0.04672 | 13339 ft | 372 kts | 102° |
| 2026-05-06 15:45 | 51.37660 | 0.08758 | 14090 ft | 377 kts | 102° |
| 2026-05-06 15:45 | 51.37079 | 0.12891 | 14767 ft | 383 kts | 102° |
| 2026-05-06 15:45 | 51.36491 | 0.17058 | 15500 ft | 386 kts | 102° |
| 2026-05-06 15:45 | 51.35899 | 0.21266 | 16218 ft | 390 kts | 102° |
| 2026-05-06 15:46 | 51.35297 | 0.25526 | 16923 ft | 395 kts | 102° |
| 2026-05-06 15:46 | 51.34687 | 0.29825 | 17633 ft | 399 kts | 103° |
| 2026-05-06 15:46 | 51.34071 | 0.34157 | 17923 ft | 400 kts | 103° |
| 2026-05-06 15:46 | 51.33452 | 0.38497 | 17983 ft | 400 kts | 103° |
| 2026-05-06 15:47 | 51.32832 | 0.42829 | 17983 ft | 399 kts | 103° |
| 2026-05-06 15:47 | 51.32212 | 0.47163 | 18288 ft | 402 kts | 103° |
| 2026-05-06 15:47 | 51.31584 | 0.51534 | 18913 ft | 405 kts | 103° |
| 2026-05-06 15:47 | 51.30946 | 0.55949 | 19521 ft | 409 kts | 103° |
| 2026-05-06 15:48 | 51.30297 | 0.60386 | 20174 ft | 412 kts | 104° |
| 2026-05-06 15:48 | 51.29572 | 0.64826 | 20810 ft | 415 kts | 106° |
| 2026-05-06 15:48 | 51.28771 | 0.69275 | 21398 ft | 418 kts | 107° |
| 2026-05-06 15:48 | 51.27925 | 0.73747 | 21977 ft | 422 kts | 107° |
| 2026-05-06 15:49 | 51.27061 | 0.78245 | 22555 ft | 425 kts | 108° |
| 2026-05-06 15:49 | 51.26204 | 0.82726 | 23088 ft | 428 kts | 107° |
| 2026-05-06 15:49 | 51.25344 | 0.87298 | 23610 ft | 432 kts | 107° |
| 2026-05-06 15:49 | 51.24488 | 0.91909 | 24066 ft | 435 kts | 107° |
| 2026-05-06 15:50 | 51.23629 | 0.96559 | 24520 ft | 437 kts | 107° |
| 2026-05-06 15:50 | 51.22767 | 1.01226 | 24990 ft | 440 kts | 107° |
| 2026-05-06 15:50 | 51.21900 | 1.05914 | 25464 ft | 442 kts | 107° |
| 2026-05-06 15:50 | 51.21024 | 1.10633 | 25931 ft | 445 kts | 108° |
| 2026-05-06 15:51 | 51.20142 | 1.15372 | 26400 ft | 447 kts | 108° |
| 2026-05-06 15:51 | 51.19249 | 1.20144 | 26847 ft | 450 kts | 108° |
| 2026-05-06 15:51 | 51.18346 | 1.24933 | 27290 ft | 452 kts | 108° |
| 2026-05-06 15:51 | 51.17434 | 1.29738 | 27722 ft | 455 kts | 108° |
| 2026-05-06 15:52 | 51.16563 | 1.34599 | 28128 ft | 458 kts | 104° |
| 2026-05-06 15:52 | 51.16081 | 1.39628 | 28543 ft | 461 kts | 95° |
| 2026-05-06 15:52 | 51.15852 | 1.44737 | 28888 ft | 463 kts | 95° |
| 2026-05-06 15:52 | 51.15616 | 1.49850 | 28961 ft | 460 kts | 95° |
| 2026-05-06 15:53 | 51.15124 | 1.59956 | 28958 ft | 457 kts | 95° |
| 2026-05-06 15:53 | 51.14615 | 1.70050 | 28958 ft | 457 kts | 95° |
| 2026-05-06 15:54 | 51.14111 | 1.80057 | 28952 ft | 456 kts | 96° |
| 2026-05-06 15:54 | 51.13596 | 1.90134 | 28963 ft | 456 kts | 95° |
| 2026-05-06 15:55 | 51.13068 | 2.00201 | 28967 ft | 457 kts | 96° |
| 2026-05-06 15:55 | 51.12539 | 2.10274 | 28963 ft | 456 kts | 95° |
| 2026-05-06 15:56 | 51.11998 | 2.20344 | 28954 ft | 456 kts | 96° |
| 2026-05-06 15:56 | 51.11439 | 2.30415 | 28931 ft | 456 kts | 96° |
| 2026-05-06 15:57 | 51.10886 | 2.40471 | 28928 ft | 456 kts | 96° |
| 2026-05-06 15:57 | 51.10324 | 2.50520 | 28931 ft | 455 kts | 96° |
| 2026-05-06 15:58 | 51.09700 | 2.60554 | 28931 ft | 455 kts | 99° |
| 2026-05-06 15:58 | 51.07822 | 2.70109 | 28921 ft | 452 kts | 117° |
| 2026-05-06 15:59 | 51.04898 | 2.78953 | 28928 ft | 452 kts | 118° |
| 2026-05-06 15:59 | 51.01981 | 2.87739 | 28933 ft | 452 kts | 119° |
| 2026-05-06 16:00 | 50.99044 | 2.96571 | 28938 ft | 452 kts | 119° |
| 2026-05-06 16:00 | 50.96100 | 3.05390 | 28935 ft | 451 kts | 119° |
| 2026-05-06 16:01 | 50.93150 | 3.14180 | 28926 ft | 451 kts | 119° |
| 2026-05-06 16:01 | 50.90196 | 3.22945 | 28915 ft | 450 kts | 119° |
| 2026-05-06 16:02 | 50.87252 | 3.31637 | 28908 ft | 450 kts | 119° |
| 2026-05-06 16:02 | 50.84290 | 3.40370 | 28907 ft | 449 kts | 120° |
| 2026-05-06 16:03 | 50.81330 | 3.49076 | 28897 ft | 449 kts | 118° |
| 2026-05-06 16:03 | 50.78361 | 3.57770 | 28888 ft | 449 kts | 119° |
| 2026-05-06 16:04 | 50.75387 | 3.66449 | 28895 ft | 450 kts | 119° |
| 2026-05-06 16:04 | 50.72398 | 3.75130 | 28887 ft | 450 kts | 119° |
| 2026-05-06 16:05 | 50.69416 | 3.83762 | 28920 ft | 447 kts | 120° |
| 2026-05-06 16:05 | 50.66445 | 3.92342 | 28919 ft | 444 kts | 120° |
| 2026-05-06 16:06 | 50.63981 | 3.99425 | 28912 ft | 443 kts | 120° |
| 2026-05-06 16:06 | 50.61035 | 4.07945 | 28905 ft | 443 kts | 119° |
| 2026-05-06 16:07 | 50.58361 | 4.16683 | 28890 ft | 443 kts | 116° |
| 2026-05-06 16:07 | 50.55835 | 4.25500 | 28882 ft | 443 kts | 115° |
| 2026-05-06 16:08 | 50.53254 | 4.34289 | 28875 ft | 443 kts | 116° |
| 2026-05-06 16:08 | 50.50612 | 4.43044 | 28872 ft | 443 kts | 116° |
| 2026-05-06 16:09 | 50.47948 | 4.51777 | 28873 ft | 443 kts | 116° |
| 2026-05-06 16:09 | 50.45284 | 4.60517 | 28875 ft | 444 kts | 116° |
| 2026-05-06 16:10 | 50.42645 | 4.69177 | 28890 ft | 442 kts | 116° |
| 2026-05-06 16:10 | 50.40000 | 4.77843 | 28899 ft | 440 kts | 116° |
| 2026-05-06 16:11 | 50.37332 | 4.86522 | 28896 ft | 439 kts | 116° |
| 2026-05-06 16:11 | 50.34690 | 4.95069 | 28888 ft | 439 kts | 117° |
| 2026-05-06 16:12 | 50.32035 | 5.03649 | 28883 ft | 438 kts | 116° |
| 2026-05-06 16:12 | 50.29373 | 5.12241 | 28879 ft | 438 kts | 117° |
| 2026-05-06 16:13 | 50.26709 | 5.20806 | 28882 ft | 438 kts | 117° |
| 2026-05-06 16:13 | 50.24031 | 5.29351 | 28876 ft | 438 kts | 117° |
| 2026-05-06 16:14 | 50.21346 | 5.37886 | 28868 ft | 437 kts | 117° |
| 2026-05-06 16:14 | 50.18687 | 5.46338 | 28862 ft | 437 kts | 118° |
| 2026-05-06 16:15 | 50.15999 | 5.54845 | 28856 ft | 437 kts | 117° |
| 2026-05-06 16:15 | 50.13307 | 5.63369 | 28857 ft | 438 kts | 118° |
| 2026-05-06 16:16 | 50.10591 | 5.71908 | 28852 ft | 439 kts | 118° |
| 2026-05-06 16:16 | 50.07853 | 5.80413 | 28859 ft | 439 kts | 118° |
| 2026-05-06 16:17 | 50.04947 | 5.88692 | 28851 ft | 439 kts | 122° |
| 2026-05-06 16:17 | 50.01820 | 5.96907 | 28839 ft | 439 kts | 123° |
| 2026-05-06 16:18 | 49.98713 | 6.05017 | 28829 ft | 439 kts | 123° |
| 2026-05-06 16:18 | 49.95629 | 6.13214 | 28838 ft | 440 kts | 122° |
| 2026-05-06 16:19 | 49.92562 | 6.21431 | 28821 ft | 440 kts | 122° |
| 2026-05-06 16:19 | 49.89485 | 6.29637 | 28823 ft | 440 kts | 122° |
| 2026-05-06 16:20 | 49.86389 | 6.37837 | 28821 ft | 440 kts | 123° |
| 2026-05-06 16:20 | 49.83295 | 6.45995 | 28839 ft | 438 kts | 123° |
| 2026-05-06 16:21 | 49.80204 | 6.54106 | 28831 ft | 437 kts | 123° |
| 2026-05-06 16:21 | 49.77121 | 6.62197 | 28824 ft | 436 kts | 123° |
| 2026-05-06 16:22 | 49.74038 | 6.70268 | 28816 ft | 436 kts | 123° |
| 2026-05-06 16:22 | 49.70940 | 6.78336 | 28800 ft | 436 kts | 123° |
| 2026-05-06 16:23 | 49.67851 | 6.86383 | 28816 ft | 435 kts | 123° |
| 2026-05-06 16:23 | 49.64753 | 6.94378 | 28808 ft | 434 kts | 123° |
| 2026-05-06 16:24 | 49.61655 | 7.02373 | 28810 ft | 434 kts | 123° |
| 2026-05-06 16:24 | 49.58554 | 7.10344 | 28809 ft | 433 kts | 123° |
| 2026-05-06 16:25 | 49.55448 | 7.18300 | 28805 ft | 433 kts | 123° |
| 2026-05-06 16:25 | 49.52347 | 7.26251 | 28789 ft | 433 kts | 123° |
| 2026-05-06 16:26 | 49.49241 | 7.34193 | 28795 ft | 433 kts | 123° |
| 2026-05-06 16:26 | 49.46124 | 7.42123 | 28795 ft | 433 kts | 123° |
| 2026-05-06 16:27 | 49.42995 | 7.50033 | 28790 ft | 433 kts | 123° |
| 2026-05-06 16:27 | 49.39859 | 7.57947 | 28790 ft | 433 kts | 123° |
| 2026-05-06 16:28 | 49.36729 | 7.65835 | 28773 ft | 433 kts | 123° |
| 2026-05-06 16:28 | 49.33588 | 7.73755 | 28776 ft | 434 kts | 123° |
| 2026-05-06 16:29 | 49.30437 | 7.81663 | 28783 ft | 434 kts | 123° |
| 2026-05-06 16:29 | 49.27279 | 7.89554 | 28782 ft | 435 kts | 123° |
| 2026-05-06 16:30 | 49.24643 | 7.96104 | 28797 ft | 435 kts | 123° |
| 2026-05-06 16:30 | 49.20937 | 8.05304 | 28811 ft | 434 kts | 124° |
| 2026-05-06 16:31 | 49.17766 | 8.13153 | 28818 ft | 433 kts | 124° |
| 2026-05-06 16:31 | 49.14602 | 8.20965 | 28821 ft | 432 kts | 124° |
| 2026-05-06 16:32 | 49.11429 | 8.28757 | 28826 ft | 432 kts | 124° |
| 2026-05-06 16:32 | 49.08248 | 8.36550 | 28818 ft | 432 kts | 124° |
| 2026-05-06 16:33 | 49.05095 | 8.44267 | 28810 ft | 431 kts | 124° |
| 2026-05-06 16:34 | 49.00331 | 8.55903 | 28813 ft | 431 kts | 124° |
| 2026-05-06 16:34 | 48.96708 | 8.63126 | 28818 ft | 429 kts | 132° |
| 2026-05-06 16:35 | 48.92806 | 8.69963 | 28811 ft | 427 kts | 139° |
| 2026-05-06 16:35 | 48.90463 | 8.72696 | 28817 ft | 424 kts | 150° |
| 2026-05-06 16:35 | 48.87819 | 8.74651 | 28819 ft | 422 kts | 161° |
| 2026-05-06 16:35 | 48.84977 | 8.75755 | 28809 ft | 421 kts | 172° |
| 2026-05-06 16:36 | 48.82090 | 8.75984 | 28809 ft | 420 kts | 183° |
| 2026-05-06 16:36 | 48.76327 | 8.74626 | 28830 ft | 418 kts | 190° |
| 2026-05-06 16:37 | 48.70607 | 8.73088 | 28853 ft | 416 kts | 190° |
| 2026-05-06 16:37 | 48.67762 | 8.72325 | 28685 ft | 414 kts | 190° |
| 2026-05-06 16:37 | 48.64932 | 8.71568 | 28831 ft | 413 kts | 190° |
| 2026-05-06 16:38 | 48.59265 | 8.70069 | 28608 ft | 412 kts | 190° |
| 2026-05-06 16:38 | 48.56459 | 8.69327 | 28048 ft | 407 kts | 190° |
| 2026-05-06 16:38 | 48.53685 | 8.68591 | 27344 ft | 403 kts | 190° |
| 2026-05-06 16:38 | 48.50925 | 8.67858 | 26636 ft | 400 kts | 190° |
| 2026-05-06 16:39 | 48.48190 | 8.67130 | 25900 ft | 398 kts | 190° |
| 2026-05-06 16:39 | 48.45455 | 8.66401 | 25146 ft | 400 kts | 189° |
| 2026-05-06 16:39 | 48.42713 | 8.65675 | 24405 ft | 399 kts | 189° |
| 2026-05-06 16:39 | 48.39984 | 8.64959 | 23650 ft | 398 kts | 189° |
| 2026-05-06 16:40 | 48.37252 | 8.64237 | 22754 ft | 399 kts | 190° |
| 2026-05-06 16:40 | 48.34535 | 8.63466 | 21984 ft | 395 kts | 191° |
| 2026-05-06 16:40 | 48.31858 | 8.62657 | 21227 ft | 391 kts | 191° |
| 2026-05-06 16:40 | 48.29233 | 8.61838 | 20473 ft | 389 kts | 191° |
| 2026-05-06 16:41 | 48.26594 | 8.61011 | 19712 ft | 386 kts | 192° |
| 2026-05-06 16:41 | 48.23969 | 8.60194 | 18987 ft | 384 kts | 191° |
| 2026-05-06 16:41 | 48.21360 | 8.59398 | 18295 ft | 382 kts | 191° |
| 2026-05-06 16:41 | 48.18763 | 8.58612 | 17564 ft | 379 kts | 191° |
| 2026-05-06 16:42 | 48.16197 | 8.57843 | 16905 ft | 373 kts | 191° |
| 2026-05-06 16:42 | 48.13672 | 8.57095 | 16285 ft | 367 kts | 191° |
| 2026-05-06 16:42 | 48.11182 | 8.56363 | 15669 ft | 361 kts | 191° |
| 2026-05-06 16:42 | 48.08741 | 8.55643 | 15045 ft | 355 kts | 192° |
| 2026-05-06 16:43 | 48.06335 | 8.54929 | 14409 ft | 350 kts | 192° |
| 2026-05-06 16:43 | 48.03955 | 8.54226 | 13768 ft | 347 kts | 192° |
| 2026-05-06 16:43 | 48.01598 | 8.53529 | 13067 ft | 343 kts | 192° |
| 2026-05-06 16:43 | 47.99266 | 8.52838 | 12398 ft | 339 kts | 192° |
| 2026-05-06 16:44 | 47.96961 | 8.52156 | 11742 ft | 336 kts | 192° |
| 2026-05-06 16:44 | 47.94699 | 8.51347 | 11173 ft | 333 kts | 198° |
| 2026-05-06 16:44 | 47.92604 | 8.49994 | 10845 ft | 321 kts | 208° |
| 2026-05-06 16:44 | 47.90703 | 8.48428 | 10812 ft | 305 kts | 210° |
| 2026-05-06 16:45 | 47.88886 | 8.46955 | 10697 ft | 290 kts | 210° |
| 2026-05-06 16:45 | 47.87144 | 8.45549 | 10514 ft | 280 kts | 210° |
| 2026-05-06 16:45 | 47.85450 | 8.44183 | 10444 ft | 276 kts | 210° |
| 2026-05-06 16:45 | 47.83767 | 8.42828 | 10373 ft | 274 kts | 210° |
| 2026-05-06 16:46 | 47.82091 | 8.41485 | 10273 ft | 272 kts | 210° |
| 2026-05-06 16:46 | 47.80425 | 8.40148 | 10144 ft | 272 kts | 210° |
| 2026-05-06 16:46 | 47.78781 | 8.38822 | 10037 ft | 273 kts | 210° |
| 2026-05-06 16:46 | 47.77126 | 8.37483 | 9726 ft | 271 kts | 211° |
| 2026-05-06 16:47 | 47.75548 | 8.36019 | 9269 ft | 263 kts | 220° |
| 2026-05-06 16:47 | 47.74277 | 8.34153 | 8868 ft | 252 kts | 228° |
| 2026-05-06 16:47 | 47.73105 | 8.32275 | 8479 ft | 244 kts | 228° |
| 2026-05-06 16:47 | 47.71962 | 8.30460 | 8100 ft | 236 kts | 226° |
| 2026-05-06 16:48 | 47.70659 | 8.29051 | 7734 ft | 231 kts | 207° |
| 2026-05-06 16:48 | 47.69148 | 8.28371 | 7383 ft | 225 kts | 190° |
| 2026-05-06 16:48 | 47.67574 | 8.28431 | 6798 ft | 231 kts | 173° |
| 2026-05-06 16:48 | 47.66064 | 8.29293 | 6288 ft | 235 kts | 153° |
| 2026-05-06 16:49 | 47.64815 | 8.30802 | 5930 ft | 228 kts | 142° |
| 2026-05-06 16:49 | 47.63683 | 8.32370 | 5622 ft | 218 kts | 141° |
| 2026-05-06 16:49 | 47.62603 | 8.33861 | 5375 ft | 205 kts | 142° |
| 2026-05-06 16:49 | 47.61574 | 8.35277 | 5059 ft | 198 kts | 142° |
| 2026-05-06 16:50 | 47.60913 | 8.36187 | 4885 ft | 194 kts | 142° |
| 2026-05-06 16:50 | 47.59939 | 8.37527 | 4630 ft | 188 kts | 142° |
| 2026-05-06 16:50 | 47.58988 | 8.38832 | 4377 ft | 184 kts | 141° |
| 2026-05-06 16:50 | 47.58062 | 8.40105 | 4098 ft | 179 kts | 139° |
| 2026-05-06 16:51 | 47.57157 | 8.41347 | 3856 ft | 175 kts | 138° |
| 2026-05-06 16:51 | 47.56277 | 8.42555 | 3627 ft | 169 kts | 138° |
| 2026-05-06 16:51 | 47.55448 | 8.43693 | 3411 ft | 156 kts | 138° |
| 2026-05-06 16:51 | 47.54678 | 8.44749 | 3203 ft | 146 kts | 138° |
| 2026-05-06 16:52 | 47.53936 | 8.45763 | 3000 ft | 144 kts | 139° |
| 2026-05-06 16:52 | 47.53207 | 8.46761 | 2821 ft | 142 kts | 137° |
| 2026-05-06 16:52 | 47.52487 | 8.47765 | 2645 ft | 142 kts | 139° |
| 2026-05-06 16:52 | 47.51757 | 8.48763 | 2439 ft | 142 kts | 140° |
| 2026-05-06 16:53 | 47.51030 | 8.49753 | 2219 ft | 142 kts | 140° |
| 2026-05-06 16:53 | 47.50311 | 8.50743 | 1997 ft | 140 kts | 139° |
| 2026-05-06 16:53 | 47.49603 | 8.51709 | 1813 ft | 138 kts | 140° |
| 2026-05-06 16:53 | 47.48897 | 8.52672 | 1636 ft | 138 kts | 140° |
| 2026-05-06 16:54 | 47.48188 | 8.53637 | 1456 ft | 138 kts | 140° |
| 2026-05-06 16:54 | 47.47513 | 8.54549 | 1400 ft | 120 kts | 137° |
| 2026-05-06 16:54 | 47.47116 | 8.55100 | 1397 ft | 53 kts | 137° |
| 2026-05-06 16:54 | 47.46842 | 8.55471 | 1397 ft | 44 kts | 137° |
| 2026-05-06 16:55 | 47.46698 | 8.55625 | 1405 ft | 21 kts | 153° |
| 2026-05-06 16:55 | 47.46545 | 8.55696 | 1407 ft | 24 kts | 168° |
| 2026-05-06 16:55 | 47.46397 | 8.55749 | 1399 ft | 21 kts | 158° |
| 2026-05-06 16:55 | 47.46297 | 8.55865 | 1398 ft | 14 kts | 145° |
| 2026-05-06 16:56 | 47.46238 | 8.55875 | 1403 ft | 9 kts | 227° |
| 2026-05-06 16:56 | 47.46217 | 8.55782 | 1401 ft | 11 kts | 219° |
| 2026-05-06 16:56 | 47.46182 | 8.55777 | 1397 ft | 4 kts | 142° |
| 2026-05-06 16:56 | 47.46162 | 8.55780 | 1400 ft | 1 kts | 187° |
| 2026-05-06 16:57 | 47.46161 | 8.55780 | 1400 ft | 0 kts | 186° |